Airfield :
LOGIN :

Register | Disclaimer

   EN    FR    IT 

 










Legend :    VFR   Marginal VFR   IFR   Intensive IFR   Very Intensive IFR
Visi :
Ceiling :
>= 8 km
>= 3000ft
5 to 8 km
1000 to 3000 ft
1500m to 5 km
500 to 1000 ft
800 to 1500m
200 to 500 ft
< 800m
< 200 ft
Symbols :   Thunderstorms  Fog  Heavy snow  Heavy precipitations  Wind > 20 kt
SIGMETs :     Misc.  Thunderstorms  Icing  Turbulence  Mountain Waves  Volcanic Ashes






- Airport Elevation : 154 ft
- IATA code : SZZ


EPSC - Szczecin Goleniow

CURRENT METAR :
  • 071630Z 30012KT 9999 FEW025CB 08/02 Q1010

EXPIRED METARs :
  • 071600Z 30019KT 9999 SCT025 SCT029 BKN034 08/02 Q1010
  • 071530Z 29013KT 9999 FEW013CB SCT049 08/03 Q1009
  • 071500Z 26009KT 9999 FEW003 SCT020CB BKN036 06/02 Q1009
  • 071430Z 28009G21KT 250V320 9999 FEW004 SCT030CB BKN037 08/03 Q1009

TAF TAF EPSC
Valid from the 07 at 12:00 until the 08 at 12:00 UTC


071130Z 0712/0812 27011KT CAVOK
TEMPO 0712/0722 30018G28KT SHRA BKN025CB
PROB40
TEMPO 0712/0717 4000 TSRAGS



MET'MAP, your aeronautical weather chart ! - Copyright ORBIFLY December 2007 - Disclaimer

ORBIFLY MET'MAP TEAM :

Programming & Development : Alexandra Zaïnal
Concept & original design : Baudouin d'Aumeries
Assistance for programming : Marc-Olivier Méhu
Technical & hardware support : Manuel Goepfert

Contact : metmap@orbifly.com




SOURCES & CREDITS :

   NOAA